sensor_id;sensor_type;location;lat;lon;timestamp;temperature;humidity
16305;DHT22;8261;47.678;-122.174;2022-12-18T00:57:03;2.00;99.90
16305;DHT22;8261;47.678;-122.174;2022-12-18T00:59:35;2.20;99.90
16305;DHT22;8261;47.678;-122.174;2022-12-18T01:02:06;2.20;99.90
16305;DHT22;8261;47.678;-122.174;2022-12-18T01:04:39;2.30;99.90
16305;DHT22;8261;47.678;-122.174;2022-12-18T01:07:10;2.30;99.90
16305;DHT22;8261;47.678;-122.174;2022-12-18T01:09:45;2.30;99.90
16305;DHT22;8261;47.678;-122.174;2022-12-18T01:12:20;2.40;99.90
16305;DHT22;8261;47.678;-122.174;2022-12-18T01:14:51;2.40;99.90
16305;DHT22;8261;47.678;-122.174;2022-12-18T01:17:24;2.50;99.90
16305;DHT22;8261;47.678;-122.174;2022-12-18T01:19:55;2.50;99.90
16305;DHT22;8261;47.678;-122.174;2022-12-18T01:22:29;2.60;99.90
16305;DHT22;8261;47.678;-122.174;2022-12-18T01:25:03;2.50;99.90
16305;DHT22;8261;47.678;-122.174;2022-12-18T01:27:41;2.60;99.90
16305;DHT22;8261;47.678;-122.174;2022-12-18T01:30:14;2.60;99.90
16305;DHT22;8261;47.678;-122.174;2022-12-18T01:32:47;2.60;99.90
16305;DHT22;8261;47.678;-122.174;2022-12-18T01:35:19;2.70;99.90
16305;DHT22;8261;47.678;-122.174;2022-12-18T01:38:02;2.70;99.90
16305;DHT22;8261;47.678;-122.174;2022-12-18T01:40:33;2.70;99.90
16305;DHT22;8261;47.678;-122.174;2022-12-18T01:43:09;2.70;99.90
16305;DHT22;8261;47.678;-122.174;2022-12-18T01:45:44;2.80;99.90
16305;DHT22;8261;47.678;-122.174;2022-12-18T01:48:16;2.90;99.90
16305;DHT22;8261;47.678;-122.174;2022-12-18T01:50:50;2.90;99.90
16305;DHT22;8261;47.678;-122.174;2022-12-18T01:53:24;2.90;99.90
16305;DHT22;8261;47.678;-122.174;2022-12-18T01:56:04;2.90;99.90
16305;DHT22;8261;47.678;-122.174;2022-12-18T01:58:44;2.90;99.90
16305;DHT22;8261;47.678;-122.174;2022-12-18T02:01:16;2.90;99.90
16305;DHT22;8261;47.678;-122.174;2022-12-18T02:03:50;3.00;99.90
16305;DHT22;8261;47.678;-122.174;2022-12-18T02:06:27;3.00;99.90
16305;DHT22;8261;47.678;-122.174;2022-12-18T02:09:09;2.90;99.90
16305;DHT22;8261;47.678;-122.174;2022-12-18T02:11:49;2.90;99.90
16305;DHT22;8261;47.678;-122.174;2022-12-18T02:14:30;2.90;99.90
16305;DHT22;8261;47.678;-122.174;2022-12-18T02:17:09;2.90;99.90
16305;DHT22;8261;47.678;-122.174;2022-12-18T02:19:54;2.90;99.90
16305;DHT22;8261;47.678;-122.174;2022-12-18T02:22:39;2.90;99.90
16305;DHT22;8261;47.678;-122.174;2022-12-18T02:25:25;2.90;99.90
16305;DHT22;8261;47.678;-122.174;2022-12-18T02:28:05;2.90;99.90
16305;DHT22;8261;47.678;-122.174;2022-12-18T02:30:40;2.90;99.90
16305;DHT22;8261;47.678;-122.174;2022-12-18T02:33:15;2.90;99.90
16305;DHT22;8261;47.678;-122.174;2022-12-18T02:36:00;2.90;99.90
16305;DHT22;8261;47.678;-122.174;2022-12-18T02:38:37;2.90;99.90
16305;DHT22;8261;47.678;-122.174;2022-12-18T02:41:08;2.90;99.90
16305;DHT22;8261;47.678;-122.174;2022-12-18T02:43:47;2.90;99.90
16305;DHT22;8261;47.678;-122.174;2022-12-18T02:46:31;2.90;99.90
16305;DHT22;8261;47.678;-122.174;2022-12-18T02:49:10;2.90;99.90
16305;DHT22;8261;47.678;-122.174;2022-12-18T02:51:50;2.90;99.90
16305;DHT22;8261;47.678;-122.174;2022-12-18T02:54:32;2.90;99.90
16305;DHT22;8261;47.678;-122.174;2022-12-18T02:57:15;3.00;99.90
16305;DHT22;8261;47.678;-122.174;2022-12-18T02:59:56;3.00;99.90
16305;DHT22;8261;47.678;-122.174;2022-12-18T03:02:39;2.90;99.90
16305;DHT22;8261;47.678;-122.174;2022-12-18T03:05:17;3.00;99.90
16305;DHT22;8261;47.678;-122.174;2022-12-18T03:07:55;3.00;99.90
16305;DHT22;8261;47.678;-122.174;2022-12-18T03:10:29;3.00;99.90
16305;DHT22;8261;47.678;-122.174;2022-12-18T03:13:06;3.00;99.90
16305;DHT22;8261;47.678;-122.174;2022-12-18T03:15:43;3.10;99.90
16305;DHT22;8261;47.678;-122.174;2022-12-18T03:18:37;3.10;99.90
16305;DHT22;8261;47.678;-122.174;2022-12-18T03:21:10;3.10;99.90
16305;DHT22;8261;47.678;-122.174;2022-12-18T03:23:47;3.00;99.90
16305;DHT22;8261;47.678;-122.174;2022-12-18T03:26:35;3.10;99.90
16305;DHT22;8261;47.678;-122.174;2022-12-18T03:29:09;3.10;99.90
16305;DHT22;8261;47.678;-122.174;2022-12-18T03:31:56;3.10;99.90
16305;DHT22;8261;47.678;-122.174;2022-12-18T03:34:32;3.10;99.90
16305;DHT22;8261;47.678;-122.174;2022-12-18T03:37:05;3.10;99.90
16305;DHT22;8261;47.678;-122.174;2022-12-18T03:39:36;3.10;99.90
16305;DHT22;8261;47.678;-122.174;2022-12-18T03:42:15;3.10;99.90
16305;DHT22;8261;47.678;-122.174;2022-12-18T03:44:55;3.10;99.90
16305;DHT22;8261;47.678;-122.174;2022-12-18T03:47:36;3.10;99.90
16305;DHT22;8261;47.678;-122.174;2022-12-18T03:50:14;3.10;99.90
16305;DHT22;8261;47.678;-122.174;2022-12-18T03:52:52;3.10;99.90
16305;DHT22;8261;47.678;-122.174;2022-12-18T03:55:25;3.20;99.90
16305;DHT22;8261;47.678;-122.174;2022-12-18T03:57:57;3.10;99.90
16305;DHT22;8261;47.678;-122.174;2022-12-18T04:00:30;3.20;99.90
16305;DHT22;8261;47.678;-122.174;2022-12-18T04:03:05;3.20;99.90
16305;DHT22;8261;47.678;-122.174;2022-12-18T04:05:41;3.20;99.90
16305;DHT22;8261;47.678;-122.174;2022-12-18T04:08:13;3.20;99.90
16305;DHT22;8261;47.678;-122.174;2022-12-18T04:10:45;3.30;99.90
16305;DHT22;8261;47.678;-122.174;2022-12-18T04:13:22;3.30;99.90
16305;DHT22;8261;47.678;-122.174;2022-12-18T04:15:53;3.30;99.90
16305;DHT22;8261;47.678;-122.174;2022-12-18T04:18:26;3.30;99.90
16305;DHT22;8261;47.678;-122.174;2022-12-18T04:20:57;3.30;99.90
16305;DHT22;8261;47.678;-122.174;2022-12-18T04:23:31;3.30;99.90
16305;DHT22;8261;47.678;-122.174;2022-12-18T04:26:02;3.30;99.90
16305;DHT22;8261;47.678;-122.174;2022-12-18T04:28:33;3.30;99.90
16305;DHT22;8261;47.678;-122.174;2022-12-18T04:31:05;3.30;99.90
16305;DHT22;8261;47.678;-122.174;2022-12-18T04:33:42;3.30;99.90
16305;DHT22;8261;47.678;-122.174;2022-12-18T04:36:16;3.30;99.90
16305;DHT22;8261;47.678;-122.174;2022-12-18T04:38:50;3.20;99.90
16305;DHT22;8261;47.678;-122.174;2022-12-18T04:41:24;3.20;99.90
16305;DHT22;8261;47.678;-122.174;2022-12-18T04:44:02;3.20;99.90
16305;DHT22;8261;47.678;-122.174;2022-12-18T04:46:33;3.20;99.90
16305;DHT22;8261;47.678;-122.174;2022-12-18T04:49:07;3.20;99.90
16305;DHT22;8261;47.678;-122.174;2022-12-18T04:51:40;3.20;99.90
16305;DHT22;8261;47.678;-122.174;2022-12-18T04:54:12;3.20;99.90
16305;DHT22;8261;47.678;-122.174;2022-12-18T04:56:44;3.20;99.90
16305;DHT22;8261;47.678;-122.174;2022-12-18T04:59:21;3.20;99.90
16305;DHT22;8261;47.678;-122.174;2022-12-18T05:01:59;3.20;99.90
16305;DHT22;8261;47.678;-122.174;2022-12-18T05:04:36;3.20;99.90
16305;DHT22;8261;47.678;-122.174;2022-12-18T05:07:12;3.20;99.90
16305;DHT22;8261;47.678;-122.174;2022-12-18T05:09:46;3.20;99.90
16305;DHT22;8261;47.678;-122.174;2022-12-18T05:12:16;3.20;99.90
16305;DHT22;8261;47.678;-122.174;2022-12-18T05:14:48;3.20;99.90
16305;DHT22;8261;47.678;-122.174;2022-12-18T05:17:22;3.20;99.90
16305;DHT22;8261;47.678;-122.174;2022-12-18T05:20:13;3.20;99.90
16305;DHT22;8261;47.678;-122.174;2022-12-18T05:22:45;3.30;99.90
16305;DHT22;8261;47.678;-122.174;2022-12-18T05:25:16;3.30;99.90
16305;DHT22;8261;47.678;-122.174;2022-12-18T05:27:48;3.30;99.90
16305;DHT22;8261;47.678;-122.174;2022-12-18T05:30:24;3.40;99.90
16305;DHT22;8261;47.678;-122.174;2022-12-18T05:33:03;3.40;99.90
16305;DHT22;8261;47.678;-122.174;2022-12-18T05:35:36;3.50;99.90
16305;DHT22;8261;47.678;-122.174;2022-12-18T05:38:07;3.50;99.90
16305;DHT22;8261;47.678;-122.174;2022-12-18T05:40:42;3.50;99.90
16305;DHT22;8261;47.678;-122.174;2022-12-18T05:43:13;3.50;99.90
16305;DHT22;8261;47.678;-122.174;2022-12-18T05:45:51;3.50;99.90
16305;DHT22;8261;47.678;-122.174;2022-12-18T05:48:24;3.50;99.90
16305;DHT22;8261;47.678;-122.174;2022-12-18T05:51:06;3.60;99.90
16305;DHT22;8261;47.678;-122.174;2022-12-18T05:53:42;3.60;99.90
16305;DHT22;8261;47.678;-122.174;2022-12-18T05:56:15;3.60;99.90
16305;DHT22;8261;47.678;-122.174;2022-12-18T05:58:47;3.60;99.90
16305;DHT22;8261;47.678;-122.174;2022-12-18T06:01:20;3.70;99.90
16305;DHT22;8261;47.678;-122.174;2022-12-18T06:03:52;3.70;99.90
16305;DHT22;8261;47.678;-122.174;2022-12-18T06:06:30;3.70;99.90
16305;DHT22;8261;47.678;-122.174;2022-12-18T06:09:03;3.70;99.90
16305;DHT22;8261;47.678;-122.174;2022-12-18T06:11:38;3.70;99.90
16305;DHT22;8261;47.678;-122.174;2022-12-18T06:14:16;3.70;99.90
16305;DHT22;8261;47.678;-122.174;2022-12-18T06:16:47;3.70;99.90
16305;DHT22;8261;47.678;-122.174;2022-12-18T06:19:25;3.80;99.90
16305;DHT22;8261;47.678;-122.174;2022-12-18T06:21:59;3.70;99.90
16305;DHT22;8261;47.678;-122.174;2022-12-18T06:24:37;3.70;99.90
16305;DHT22;8261;47.678;-122.174;2022-12-18T06:27:10;3.70;99.90
16305;DHT22;8261;47.678;-122.174;2022-12-18T06:29:41;3.70;99.90
16305;DHT22;8261;47.678;-122.174;2022-12-18T06:32:18;3.70;99.90
16305;DHT22;8261;47.678;-122.174;2022-12-18T06:34:50;3.80;99.90
16305;DHT22;8261;47.678;-122.174;2022-12-18T06:37:37;3.80;99.90
16305;DHT22;8261;47.678;-122.174;2022-12-18T06:40:09;3.70;99.90
16305;DHT22;8261;47.678;-122.174;2022-12-18T06:42:46;3.80;99.90
16305;DHT22;8261;47.678;-122.174;2022-12-18T06:45:17;3.80;99.90
16305;DHT22;8261;47.678;-122.174;2022-12-18T06:47:56;3.80;99.90
16305;DHT22;8261;47.678;-122.174;2022-12-18T06:50:31;3.80;99.90
16305;DHT22;8261;47.678;-122.174;2022-12-18T06:53:05;3.80;99.90
16305;DHT22;8261;47.678;-122.174;2022-12-18T06:55:58;3.80;99.90
16305;DHT22;8261;47.678;-122.174;2022-12-18T06:58:36;3.80;99.90
16305;DHT22;8261;47.678;-122.174;2022-12-18T07:01:09;3.80;99.90
16305;DHT22;8261;47.678;-122.174;2022-12-18T07:03:42;3.80;99.90
16305;DHT22;8261;47.678;-122.174;2022-12-18T07:06:17;3.80;99.90
16305;DHT22;8261;47.678;-122.174;2022-12-18T07:08:56;3.80;99.90
16305;DHT22;8261;47.678;-122.174;2022-12-18T07:11:28;3.80;99.90
16305;DHT22;8261;47.678;-122.174;2022-12-18T07:14:00;3.80;99.90
16305;DHT22;8261;47.678;-122.174;2022-12-18T07:16:33;3.80;99.90
16305;DHT22;8261;47.678;-122.174;2022-12-18T07:19:06;3.80;99.90
16305;DHT22;8261;47.678;-122.174;2022-12-18T07:24:32;3.80;99.90
16305;DHT22;8261;47.678;-122.174;2022-12-18T07:27:06;3.80;99.90
16305;DHT22;8261;47.678;-122.174;2022-12-18T07:29:41;3.90;99.90
16305;DHT22;8261;47.678;-122.174;2022-12-18T07:32:14;3.90;99.90
16305;DHT22;8261;47.678;-122.174;2022-12-18T07:34:45;3.90;99.90
16305;DHT22;8261;47.678;-122.174;2022-12-18T07:37:18;3.90;99.90
16305;DHT22;8261;47.678;-122.174;2022-12-18T07:39:53;3.80;99.90
16305;DHT22;8261;47.678;-122.174;2022-12-18T07:42:30;3.90;99.90
16305;DHT22;8261;47.678;-122.174;2022-12-18T07:45:03;3.90;99.90
16305;DHT22;8261;47.678;-122.174;2022-12-18T07:47:37;3.90;99.90
16305;DHT22;8261;47.678;-122.174;2022-12-18T07:50:10;3.90;99.90
16305;DHT22;8261;47.678;-122.174;2022-12-18T07:52:41;3.90;99.90
16305;DHT22;8261;47.678;-122.174;2022-12-18T07:55:24;3.90;99.90
16305;DHT22;8261;47.678;-122.174;2022-12-18T07:58:09;3.90;99.90
16305;DHT22;8261;47.678;-122.174;2022-12-18T08:00:40;3.90;99.90
16305;DHT22;8261;47.678;-122.174;2022-12-18T08:03:14;3.90;99.90
16305;DHT22;8261;47.678;-122.174;2022-12-18T08:05:46;3.90;99.90
16305;DHT22;8261;47.678;-122.174;2022-12-18T08:08:17;3.90;99.90
16305;DHT22;8261;47.678;-122.174;2022-12-18T08:10:50;3.90;99.90
16305;DHT22;8261;47.678;-122.174;2022-12-18T08:13:22;3.90;99.90
16305;DHT22;8261;47.678;-122.174;2022-12-18T08:15:58;3.90;99.90
16305;DHT22;8261;47.678;-122.174;2022-12-18T08:18:29;3.90;99.90
16305;DHT22;8261;47.678;-122.174;2022-12-18T08:21:08;3.90;99.90
16305;DHT22;8261;47.678;-122.174;2022-12-18T08:23:40;3.90;99.90
16305;DHT22;8261;47.678;-122.174;2022-12-18T08:26:14;3.90;99.90
16305;DHT22;8261;47.678;-122.174;2022-12-18T08:29:03;3.90;99.90
16305;DHT22;8261;47.678;-122.174;2022-12-18T08:31:50;3.90;99.90
16305;DHT22;8261;47.678;-122.174;2022-12-18T08:34:26;3.90;99.90
16305;DHT22;8261;47.678;-122.174;2022-12-18T08:36:58;3.90;99.90
16305;DHT22;8261;47.678;-122.174;2022-12-18T08:39:29;3.90;99.90
16305;DHT22;8261;47.678;-122.174;2022-12-18T08:42:14;3.90;99.90
